createdAt,value
2018-02-09T01:38:52.235Z,48.57
2018-02-09T01:38:52.790Z,48.57
2018-02-09T01:38:53.391Z,48.57
2018-02-09T01:38:53.991Z,48.57
2018-02-09T01:38:54.602Z,48.38
2018-02-09T01:38:55.190Z,48.57
2018-02-09T01:38:55.788Z,48.57
2018-02-09T01:38:56.389Z,48.57
2018-02-09T01:39:50.895Z,48.38
2018-02-09T01:39:51.488Z,48.66
2018-02-09T01:39:52.068Z,48.47
2018-02-09T01:39:52.666Z,48.47
2018-02-09T01:39:53.268Z,48.66
2018-02-09T01:39:53.864Z,48.38
2018-02-09T01:39:54.466Z,48.38
2018-02-09T01:39:55.064Z,48.66
2018-02-09T01:40:48.549Z,48.66
2018-02-09T01:40:49.177Z,48.66
2018-02-09T01:40:49.720Z,48.66
2018-02-09T01:40:50.320Z,48.66
2018-02-09T01:40:50.919Z,48.76
2018-02-09T01:40:51.519Z,48.66
2018-02-09T01:40:52.119Z,48.76
2018-02-09T01:40:52.719Z,48.76
2018-02-09T01:41:46.201Z,48.76
2018-02-09T01:41:46.773Z,48.85
2018-02-09T01:41:47.374Z,48.76
2018-02-09T01:41:47.973Z,48.85
2018-02-09T01:41:48.572Z,49.04
2018-02-09T01:41:49.172Z,48.85
2018-02-09T01:41:49.772Z,48.76
2018-02-09T01:41:50.372Z,48.95
2018-02-09T01:42:43.854Z,48.85
2018-02-09T01:42:44.425Z,48.85
2018-02-09T01:42:45.025Z,48.66
2018-02-09T01:42:45.624Z,48.76
2018-02-09T01:42:46.224Z,48.95
2018-02-09T01:42:46.826Z,48.85
2018-02-09T01:42:47.425Z,48.85
2018-02-09T01:42:48.023Z,48.76
2018-02-09T01:43:42.526Z,48.29
2018-02-09T01:43:43.100Z,48.66
2018-02-09T01:43:43.699Z,48.19
2018-02-09T01:43:44.300Z,48.57
2018-02-09T01:43:44.900Z,48.47
2018-02-09T01:43:45.498Z,48.29
2018-02-09T01:43:46.100Z,48.57
2018-02-09T01:43:46.702Z,48.29
2018-02-09T01:44:40.181Z,48.85
2018-02-09T01:44:40.753Z,48.76
2018-02-09T01:44:41.352Z,48.76
2018-02-09T01:44:41.951Z,48.66
2018-02-09T01:44:42.553Z,48.85
2018-02-09T01:44:43.157Z,48.76
2018-02-09T01:44:43.752Z,48.66
2018-02-09T01:44:44.352Z,48.76
2018-02-09T01:45:38.865Z,48.66
2018-02-09T01:45:39.429Z,48.76
2018-02-09T01:45:40.028Z,48.76
2018-02-09T01:45:40.629Z,48.76
2018-02-09T01:45:41.228Z,48.66
2018-02-09T01:45:41.828Z,48.66
2018-02-09T01:45:42.427Z,48.66
2018-02-09T01:45:43.028Z,48.66
2018-02-09T01:46:37.541Z,48.38
2018-02-09T01:46:38.105Z,48.66
2018-02-09T01:46:38.705Z,48.10
2018-02-09T01:46:39.304Z,48.57
2018-02-09T01:46:39.904Z,48.66
2018-02-09T01:46:40.514Z,48.47
2018-02-09T01:46:41.105Z,48.57
2018-02-09T01:46:41.703Z,48.47
2018-02-09T01:47:35.185Z,48.47
2018-02-09T01:47:35.758Z,48.57
2018-02-09T01:47:36.357Z,48.38
2018-02-09T01:47:36.963Z,48.57
2018-02-09T01:47:37.556Z,48.66
2018-02-09T01:47:38.158Z,48.57
2018-02-09T01:47:38.756Z,48.57
2018-02-09T01:47:39.355Z,48.57
2018-02-09T01:48:33.860Z,47.44
2018-02-09T01:48:34.430Z,47.81
2018-02-09T01:48:35.031Z,47.63
2018-02-09T01:48:35.631Z,47.44
2018-02-09T01:48:36.230Z,47.72
2018-02-09T01:48:36.832Z,47.53
2018-02-09T01:48:37.430Z,47.53
2018-02-09T01:48:38.032Z,47.53
2018-02-09T01:49:32.535Z,47.06
2018-02-09T01:49:33.108Z,47.06
2018-02-09T01:49:33.708Z,47.06
2018-02-09T01:49:34.306Z,47.25
2018-02-09T01:49:34.909Z,47.16
2018-02-09T01:49:35.510Z,47.16
2018-02-09T01:49:36.106Z,47.16
2018-02-09T01:49:36.705Z,47.06
2018-02-09T01:50:31.210Z,46.40
2018-02-09T01:50:31.783Z,46.40
2018-02-09T01:50:32.383Z,46.31
2018-02-09T01:50:32.985Z,46.40
2018-02-09T01:50:33.583Z,46.31
2018-02-09T01:50:34.187Z,46.31
2018-02-09T01:50:34.782Z,46.31
2018-02-09T01:50:35.382Z,46.50
2018-02-09T01:51:28.864Z,45.84
2018-02-09T01:51:29.437Z,45.74
2018-02-09T01:51:30.053Z,45.74
2018-02-09T01:51:30.636Z,45.84
2018-02-09T01:51:31.235Z,46.12
2018-02-09T01:51:31.836Z,45.84
2018-02-09T01:51:32.436Z,46.03
2018-02-09T01:51:33.037Z,45.84
2018-02-09T01:52:26.522Z,45.74
2018-02-09T01:52:27.088Z,45.65
2018-02-09T01:52:27.687Z,45.74
2018-02-09T01:52:28.288Z,45.74
2018-02-09T01:52:28.887Z,45.74
2018-02-09T01:52:29.487Z,45.84
2018-02-09T01:52:30.087Z,45.93
2018-02-09T01:52:30.693Z,45.84
2018-02-09T01:53:24.171Z,44.70
2018-02-09T01:53:24.739Z,44.61
2018-02-09T01:53:25.338Z,44.80
2018-02-09T01:53:25.939Z,44.61
2018-02-09T01:53:26.539Z,44.70
2018-02-09T01:53:27.139Z,44.61
2018-02-09T01:53:27.739Z,44.61
2018-02-09T01:53:28.340Z,44.61
2018-02-09T01:54:21.822Z,44.70
2018-02-09T01:54:22.392Z,44.61
2018-02-09T01:54:22.992Z,44.70
2018-02-09T01:54:23.592Z,44.70
2018-02-09T01:54:24.193Z,44.51
2018-02-09T01:54:24.790Z,44.51
2018-02-09T01:54:25.393Z,44.70
2018-02-09T01:54:25.990Z,44.51
2018-02-09T01:55:19.473Z,44.70
2018-02-09T01:55:20.046Z,44.61
2018-02-09T01:55:20.644Z,44.80
2018-02-09T01:55:21.243Z,44.70
2018-02-09T01:55:21.844Z,44.61
2018-02-09T01:55:22.443Z,44.51
2018-02-09T01:55:23.042Z,44.70
2018-02-09T01:55:23.640Z,44.70
2018-02-09T01:56:17.127Z,44.32
2018-02-09T01:56:17.695Z,44.23
2018-02-09T01:56:18.294Z,44.42
2018-02-09T01:56:18.893Z,44.32
2018-02-09T01:56:19.495Z,44.23
2018-02-09T01:56:20.095Z,44.23
2018-02-09T01:56:20.693Z,44.14
2018-02-09T01:56:21.294Z,44.14
2018-02-09T01:57:14.774Z,44.32
2018-02-09T01:57:15.347Z,44.42
2018-02-09T01:57:15.948Z,44.51
2018-02-09T01:57:16.547Z,44.32
2018-02-09T01:57:17.152Z,44.51
2018-02-09T01:57:17.746Z,44.51
2018-02-09T01:57:18.345Z,44.42
2018-02-09T01:57:18.944Z,44.42
2018-02-09T01:58:12.430Z,43.66
2018-02-09T01:58:12.998Z,43.76
2018-02-09T01:58:13.597Z,44.04
2018-02-09T01:58:14.199Z,43.95
2018-02-09T01:58:14.798Z,44.04
2018-02-09T01:58:15.397Z,43.85
2018-02-09T01:58:15.998Z,44.04
2018-02-09T01:58:16.598Z,43.66
2018-02-09T01:59:10.079Z,43.19
2018-02-09T01:59:10.650Z,43.38
2018-02-09T01:59:11.249Z,43.38
2018-02-09T01:59:11.850Z,43.29
2018-02-09T01:59:12.449Z,43.38
2018-02-09T01:59:13.051Z,43.38
2018-02-09T01:59:13.649Z,43.38
2018-02-09T01:59:14.248Z,43.29
2018-02-09T02:00:07.732Z,43.48
2018-02-09T02:00:08.303Z,43.29
2018-02-09T02:00:08.902Z,43.48
2018-02-09T02:00:09.500Z,43.48
2018-02-09T02:00:10.100Z,43.29
2018-02-09T02:00:10.701Z,43.38
2018-02-09T02:00:11.336Z,43.38
2018-02-09T02:00:11.899Z,43.48
2018-02-09T02:01:05.389Z,43.57
2018-02-09T02:01:05.954Z,43.66
2018-02-09T02:01:06.552Z,43.57
2018-02-09T02:01:07.152Z,43.66
2018-02-09T02:01:07.752Z,43.57
2018-02-09T02:01:08.352Z,43.48
2018-02-09T02:01:08.952Z,43.57
2018-02-09T02:01:09.553Z,43.57
2018-02-09T02:02:03.037Z,43.85
2018-02-09T02:02:03.606Z,44.04
2018-02-09T02:02:04.207Z,43.95
2018-02-09T02:02:04.809Z,43.85
2018-02-09T02:02:05.440Z,43.85
2018-02-09T02:02:06.008Z,43.95
2018-02-09T02:02:06.605Z,43.76
2018-02-09T02:02:07.204Z,44.04
2018-02-09T02:03:01.711Z,44.32
2018-02-09T02:03:02.279Z,44.32
2018-02-09T02:03:02.879Z,44.42
2018-02-09T02:03:03.479Z,44.32
2018-02-09T02:03:04.079Z,44.23
2018-02-09T02:03:04.679Z,44.42
2018-02-09T02:03:05.278Z,44.32
2018-02-09T02:03:05.884Z,44.32
2018-02-09T02:03:59.363Z,44.61
2018-02-09T02:03:59.933Z,44.32
2018-02-09T02:04:00.532Z,44.51
2018-02-09T02:04:01.132Z,44.51
2018-02-09T02:04:01.732Z,44.51
2018-02-09T02:04:02.332Z,44.23
2018-02-09T02:04:02.932Z,44.23
2018-02-09T02:04:03.532Z,44.14
2018-02-09T02:04:58.039Z,44.80
2018-02-09T02:04:58.606Z,44.70
2018-02-09T02:04:59.206Z,44.42
2018-02-09T02:04:59.810Z,44.51
2018-02-09T02:05:00.406Z,44.51
2018-02-09T02:05:01.007Z,44.51
2018-02-09T02:05:01.607Z,44.61
2018-02-09T02:05:02.205Z,44.70
2018-02-09T02:05:56.714Z,44.99
2018-02-09T02:05:57.283Z,44.99
2018-02-09T02:05:57.882Z,45.18
2018-02-09T02:05:58.482Z,45.18
2018-02-09T02:05:59.083Z,45.27
2018-02-09T02:05:59.682Z,45.08
2018-02-09T02:06:00.281Z,45.08
2018-02-09T02:06:00.887Z,45.27
2018-02-09T02:06:55.391Z,45.36
2018-02-09T02:06:55.962Z,45.46
2018-02-09T02:06:56.556Z,45.46
2018-02-09T02:06:57.157Z,45.55
2018-02-09T02:06:57.756Z,45.36
2018-02-09T02:06:58.358Z,45.36
2018-02-09T02:06:58.956Z,45.36
2018-02-09T02:06:59.555Z,45.46
2018-02-09T02:07:53.043Z,45.74
2018-02-09T02:07:53.611Z,45.67
2018-02-09T02:07:54.211Z,45.84
2018-02-09T02:07:54.810Z,45.74
2018-02-09T02:07:55.409Z,45.65
2018-02-09T02:07:56.011Z,45.74
2018-02-09T02:07:56.608Z,45.67
2018-02-09T02:07:57.211Z,45.67
2018-02-09T02:08:50.695Z,45.65
2018-02-09T02:08:51.262Z,45.84
2018-02-09T02:08:51.862Z,45.76
2018-02-09T02:08:52.462Z,45.74
2018-02-09T02:08:53.063Z,45.84
2018-02-09T02:08:53.661Z,45.74
2018-02-09T02:08:54.263Z,45.74
2018-02-09T02:08:54.862Z,45.74
2018-02-09T02:09:48.345Z,45.76
2018-02-09T02:09:48.915Z,46.14
2018-02-09T02:09:49.515Z,45.86
2018-02-09T02:09:50.114Z,45.76
2018-02-09T02:09:50.714Z,45.76
2018-02-09T02:09:51.314Z,45.74
2018-02-09T02:09:51.965Z,45.76
2018-02-09T02:09:52.516Z,45.67
2018-02-09T02:10:47.017Z,46.52
2018-02-09T02:10:47.594Z,46.33
2018-02-09T02:10:48.189Z,46.33
2018-02-09T02:10:48.789Z,46.31
2018-02-09T02:10:49.408Z,46.33
2018-02-09T02:10:49.990Z,46.33
2018-02-09T02:10:50.588Z,46.33
2018-02-09T02:10:51.189Z,46.52
2018-02-09T02:11:44.671Z,47.18
2018-02-09T02:11:45.242Z,47.18
2018-02-09T02:11:45.840Z,47.37
2018-02-09T02:11:46.441Z,47.27
2018-02-09T02:11:47.042Z,47.27
2018-02-09T02:11:47.640Z,47.46
2018-02-09T02:11:48.294Z,47.56
2018-02-09T02:11:48.841Z,47.56
2018-02-09T02:12:42.324Z,48.03
2018-02-09T02:12:42.893Z,48.03
2018-02-09T02:12:43.493Z,48.13
2018-02-09T02:12:44.094Z,47.94
2018-02-09T02:12:44.692Z,48.13
2018-02-09T02:12:45.292Z,48.22
2018-02-09T02:12:45.891Z,48.13
2018-02-09T02:12:46.493Z,48.22
2018-02-09T02:13:39.974Z,48.69
2018-02-09T02:13:40.544Z,48.69
2018-02-09T02:13:41.145Z,48.60
2018-02-09T02:13:41.744Z,48.69
2018-02-09T02:13:42.343Z,48.69
2018-02-09T02:13:42.944Z,48.69
2018-02-09T02:13:43.544Z,48.60
2018-02-09T02:13:44.144Z,48.69
2018-02-09T02:14:38.652Z,49.63
2018-02-09T02:14:39.219Z,49.54
2018-02-09T02:14:39.818Z,49.63
2018-02-09T02:14:40.418Z,49.63
2018-02-09T02:14:41.020Z,49.54
2018-02-09T02:14:41.619Z,49.63
2018-02-09T02:14:42.218Z,49.82
2018-02-09T02:14:42.818Z,49.63
2018-02-09T02:15:37.325Z,51.05
2018-02-09T02:15:37.896Z,51.05
2018-02-09T02:15:38.496Z,50.95
2018-02-09T02:15:39.095Z,50.86
2018-02-09T02:15:39.694Z,50.86
2018-02-09T02:15:40.295Z,51.05
2018-02-09T02:15:40.895Z,50.76
2018-02-09T02:15:41.494Z,50.95
2018-02-09T02:16:34.978Z,51.81
2018-02-09T02:16:35.548Z,51.81
2018-02-09T02:16:36.148Z,51.90
2018-02-09T02:16:36.747Z,52.18
2018-02-09T02:16:37.356Z,52.09
2018-02-09T02:16:37.947Z,52.09
2018-02-09T02:16:38.546Z,52.37
2018-02-09T02:16:39.147Z,52.47
2018-02-09T02:17:33.652Z,52.94
2018-02-09T02:17:34.223Z,52.94
2018-02-09T02:17:34.823Z,53.03
2018-02-09T02:17:35.422Z,52.94
2018-02-09T02:17:36.023Z,52.94
2018-02-09T02:17:36.622Z,52.94
2018-02-09T02:17:37.221Z,52.84
2018-02-09T02:17:37.822Z,52.94
2018-02-09T02:18:32.331Z,53.88
2018-02-09T02:18:32.898Z,54.07
2018-02-09T02:18:33.498Z,54.07
2018-02-09T02:18:34.097Z,54.07
2018-02-09T02:18:34.697Z,53.97
2018-02-09T02:18:35.298Z,53.88
2018-02-09T02:18:35.897Z,53.69
2018-02-09T02:18:36.496Z,53.69
2018-02-09T02:19:29.982Z,54.63
2018-02-09T02:19:30.550Z,54.44
2018-02-09T02:19:31.150Z,54.54
2018-02-09T02:19:31.750Z,54.44
2018-02-09T02:19:32.350Z,54.44
2018-02-09T02:19:32.950Z,54.44
2018-02-09T02:19:33.550Z,54.54
2018-02-09T02:19:34.150Z,54.54
2018-02-09T02:20:28.657Z,55.30
2018-02-09T02:20:29.225Z,55.30
2018-02-09T02:20:29.826Z,55.30
2018-02-09T02:20:30.425Z,55.30
2018-02-09T02:20:31.024Z,55.30
2018-02-09T02:20:31.626Z,55.49
2018-02-09T02:20:32.225Z,55.39
2018-02-09T02:20:32.830Z,55.49
2018-02-09T02:21:26.306Z,55.67
2018-02-09T02:21:26.877Z,55.77
2018-02-09T02:21:27.479Z,55.67
2018-02-09T02:21:28.084Z,55.77
2018-02-09T02:21:28.676Z,55.77
2018-02-09T02:21:29.295Z,55.67
2018-02-09T02:21:29.876Z,55.96
2018-02-09T02:21:30.477Z,55.67
2018-02-09T02:22:23.963Z,56.34
2018-02-09T02:22:24.532Z,56.43
2018-02-09T02:22:25.130Z,56.24
2018-02-09T02:22:25.731Z,56.34
2018-02-09T02:22:26.330Z,56.52
2018-02-09T02:22:26.929Z,56.43
2018-02-09T02:22:27.529Z,56.15
2018-02-09T02:22:28.129Z,56.15
2018-02-09T02:23:21.610Z,57.09
2018-02-09T02:23:22.181Z,56.90
2018-02-09T02:23:22.780Z,57.37
2018-02-09T02:23:23.381Z,57.18
2018-02-09T02:23:23.980Z,57.65
2018-02-09T02:23:24.586Z,57.18
2018-02-09T02:23:25.180Z,57.65
2018-02-09T02:23:25.781Z,57.37
2018-02-09T02:24:19.262Z,58.03
2018-02-09T02:24:19.832Z,57.84
2018-02-09T02:24:20.434Z,58.12
2018-02-09T02:24:21.032Z,57.84
2018-02-09T02:24:21.632Z,57.84
2018-02-09T02:24:22.232Z,57.94
2018-02-09T02:24:22.833Z,57.94
2018-02-09T02:24:23.439Z,57.84
2018-02-09T02:25:17.937Z,58.31
2018-02-09T02:25:18.509Z,58.60
2018-02-09T02:25:19.109Z,58.41
2018-02-09T02:25:19.708Z,58.50
2018-02-09T02:25:20.310Z,58.50
2018-02-09T02:25:20.906Z,58.50
2018-02-09T02:25:21.507Z,58.60
2018-02-09T02:25:22.110Z,58.41
2018-02-09T02:26:16.615Z,58.98
2018-02-09T02:26:17.184Z,59.07
2018-02-09T02:26:17.783Z,59.45
2018-02-09T02:26:18.384Z,59.17
2018-02-09T02:26:18.988Z,59.07
2018-02-09T02:26:19.583Z,59.45
2018-02-09T02:26:20.183Z,59.26
2018-02-09T02:26:20.783Z,59.26
2018-02-09T02:27:14.266Z,59.73
2018-02-09T02:27:14.835Z,60.21
2018-02-09T02:27:15.436Z,60.11
2018-02-09T02:27:16.041Z,60.02
2018-02-09T02:27:16.635Z,59.83
2018-02-09T02:27:17.235Z,59.83
2018-02-09T02:27:17.835Z,60.11
2018-02-09T02:27:18.435Z,60.21
2018-02-09T02:28:12.942Z,60.68
2018-02-09T02:28:13.510Z,60.68
2018-02-09T02:28:14.110Z,60.68
2018-02-09T02:28:14.711Z,60.86
2018-02-09T02:28:15.310Z,60.68
2018-02-09T02:28:15.910Z,60.68
2018-02-09T02:28:16.509Z,61.43
2018-02-09T02:28:17.111Z,60.58
2018-02-09T02:29:10.593Z,61.80
2018-02-09T02:29:11.163Z,61.80
2018-02-09T02:29:11.764Z,61.90
2018-02-09T02:29:12.363Z,61.80
2018-02-09T02:29:12.964Z,61.80
2018-02-09T02:29:13.563Z,61.80
2018-02-09T02:29:14.163Z,61.90
2018-02-09T02:29:14.764Z,61.99
2018-02-09T02:30:08.245Z,61.90
2018-02-09T02:30:08.820Z,61.90
2018-02-09T02:30:09.416Z,61.90
2018-02-09T02:30:10.016Z,61.90
2018-02-09T02:30:10.614Z,61.90
2018-02-09T02:30:11.217Z,61.90
2018-02-09T02:30:11.816Z,61.90
2018-02-09T02:30:12.414Z,61.90
2018-02-09T02:31:05.896Z,61.99
2018-02-09T02:31:06.468Z,61.99
2018-02-09T02:31:07.066Z,62.09
2018-02-09T02:31:07.666Z,62.09
2018-02-09T02:31:08.267Z,62.09
2018-02-09T02:31:08.866Z,62.09
2018-02-09T02:31:09.467Z,62.09
2018-02-09T02:31:10.066Z,62.28
2018-02-09T02:32:04.573Z,62.37
2018-02-09T02:32:05.141Z,62.37
2018-02-09T02:32:05.742Z,62.37
2018-02-09T02:32:06.348Z,62.37
2018-02-09T02:32:06.942Z,62.37
2018-02-09T02:32:07.542Z,62.37
2018-02-09T02:32:08.141Z,62.56
2018-02-09T02:32:08.742Z,62.56
2018-02-09T02:33:03.247Z,63.32
2018-02-09T02:33:03.818Z,63.60
2018-02-09T02:33:04.417Z,63.60
2018-02-09T02:33:05.016Z,63.22
2018-02-09T02:33:05.617Z,63.60
2018-02-09T02:33:06.217Z,63.60
2018-02-09T02:33:06.832Z,63.41
2018-02-09T02:33:07.415Z,63.51
2018-02-09T02:34:00.899Z,63.22
2018-02-09T02:34:01.470Z,63.32
2018-02-09T02:34:02.069Z,63.41
2018-02-09T02:34:02.676Z,63.41
2018-02-09T02:34:03.267Z,63.32
2018-02-09T02:34:03.872Z,63.22
2018-02-09T02:34:04.467Z,63.41
2018-02-09T02:34:05.069Z,63.32
2018-02-09T02:34:58.552Z,63.41
2018-02-09T02:34:59.128Z,63.41
2018-02-09T02:34:59.720Z,63.32
2018-02-09T02:35:00.324Z,63.41
2018-02-09T02:35:00.920Z,63.41
2018-02-09T02:35:01.520Z,63.32
2018-02-09T02:35:02.120Z,63.41
2018-02-09T02:35:02.720Z,63.41
2018-02-09T02:53:36.164Z,69.54
2018-02-09T02:53:36.673Z,69.54
2018-02-09T02:53:37.269Z,69.64
2018-02-09T02:53:37.867Z,69.64
2018-02-09T02:53:38.469Z,69.54
2018-02-09T02:53:39.069Z,69.54
2018-02-09T02:53:39.671Z,69.64
2018-02-09T02:54:34.211Z,68.98
2018-02-09T02:54:34.779Z,69.17
2018-02-09T02:54:35.380Z,69.17
2018-02-09T02:54:35.979Z,69.17
2018-02-09T02:54:36.580Z,68.98
2018-02-09T02:54:37.179Z,69.17
2018-02-09T02:54:37.779Z,69.17
2018-02-09T02:54:38.379Z,69.17
2018-02-09T02:55:31.861Z,69.64
2018-02-09T02:55:32.433Z,69.64
2018-02-09T02:55:33.033Z,69.54
2018-02-09T02:55:33.633Z,69.64
2018-02-09T02:55:34.234Z,69.64
2018-02-09T02:55:34.836Z,69.64
2018-02-09T02:55:35.432Z,69.64
2018-02-09T02:55:36.030Z,69.64
2018-02-09T02:56:29.513Z,69.45
2018-02-09T02:56:30.086Z,69.32
2018-02-09T02:56:30.685Z,69.35
2018-02-09T02:56:31.284Z,69.35
2018-02-09T02:56:31.884Z,69.51
2018-02-09T02:56:32.487Z,69.32
2018-02-09T02:56:33.083Z,69.32
2018-02-09T02:56:33.682Z,69.35
2018-02-09T02:57:27.164Z,68.70
2018-02-09T02:57:27.739Z,69.17
2018-02-09T02:57:28.337Z,68.57
2018-02-09T02:57:28.939Z,69.07
2018-02-09T02:57:29.536Z,68.60
2018-02-09T02:57:30.199Z,68.47
2018-02-09T02:57:30.735Z,68.85
2018-02-09T02:57:31.336Z,68.76
2018-02-09T02:58:25.844Z,68.85
2018-02-09T02:58:26.412Z,69.13
2018-02-09T02:58:27.014Z,68.85
2018-02-09T02:58:27.611Z,68.76
2018-02-09T02:58:28.212Z,69.04
2018-02-09T02:58:28.817Z,68.79
2018-02-09T02:58:29.412Z,68.76
2018-02-09T02:58:30.011Z,68.76
2018-02-09T02:59:23.498Z,68.66
2018-02-09T02:59:24.065Z,68.76
2018-02-09T02:59:24.665Z,68.66
2018-02-09T02:59:25.264Z,68.66
2018-02-09T02:59:25.866Z,68.95
2018-02-09T02:59:26.465Z,68.95
2018-02-09T02:59:27.063Z,68.66
2018-02-09T02:59:27.663Z,68.95
2018-02-09T03:00:22.167Z,68.66
2018-02-09T03:00:22.740Z,68.85
2018-02-09T03:00:23.343Z,68.95
2018-02-09T03:00:23.943Z,68.85
2018-02-09T03:00:24.538Z,68.85
2018-02-09T03:00:25.140Z,68.38
2018-02-09T03:00:25.740Z,68.88
2018-02-09T03:00:26.343Z,68.29
2018-02-09T03:01:20.844Z,67.72
2018-02-09T03:01:21.418Z,67.91
2018-02-09T03:01:22.015Z,67.72
2018-02-09T03:01:22.615Z,68.19
2018-02-09T03:01:23.215Z,68.19
2018-02-09T03:01:23.824Z,67.91
2018-02-09T03:01:24.414Z,67.81
2018-02-09T03:01:25.014Z,67.81
2018-02-09T03:02:18.505Z,66.77
2018-02-09T03:02:19.083Z,66.77
2018-02-09T03:02:19.668Z,67.34
2018-02-09T03:02:20.269Z,66.96
2018-02-09T03:02:20.884Z,67.25
2018-02-09T03:02:21.467Z,67.15
2018-02-09T03:02:22.068Z,66.96
2018-02-09T03:02:22.667Z,66.87
2018-02-09T03:03:17.176Z,67.06
2018-02-09T03:03:17.744Z,67.15
2018-02-09T03:03:18.344Z,66.96
2018-02-09T03:03:18.944Z,67.15
2018-02-09T03:03:19.544Z,67.15
2018-02-09T03:03:20.144Z,66.87
2018-02-09T03:03:20.744Z,67.15
2018-02-09T03:03:21.342Z,67.25
2018-02-09T03:04:15.846Z,67.06
2018-02-09T03:04:16.421Z,67.15
2018-02-09T03:04:17.018Z,67.15
2018-02-09T03:04:17.621Z,67.25
2018-02-09T03:04:18.218Z,67.06
2018-02-09T03:04:18.820Z,66.96
2018-02-09T03:04:19.418Z,67.25
2018-02-09T03:04:20.019Z,66.96
2018-02-09T03:05:14.526Z,66.21
2018-02-09T03:05:15.100Z,67.06
2018-02-09T03:05:15.695Z,66.87
2018-02-09T03:05:16.294Z,66.87
2018-02-09T03:05:16.894Z,66.15
2018-02-09T03:05:17.494Z,66.21
2018-02-09T03:05:18.093Z,66.49
2018-02-09T03:05:18.696Z,66.49
2018-02-09T03:06:12.178Z,66.11
2018-02-09T03:06:12.748Z,66.21
2018-02-09T03:06:13.347Z,66.49
2018-02-09T03:06:13.951Z,66.58
2018-02-09T03:06:14.548Z,66.40
2018-02-09T03:06:15.146Z,66.40
2018-02-09T03:06:15.746Z,66.40
2018-02-09T03:06:16.347Z,66.40
2018-02-09T03:07:09.829Z,65.36
2018-02-09T03:07:10.399Z,64.89
2018-02-09T03:07:10.998Z,65.36
2018-02-09T03:07:11.598Z,65.08
2018-02-09T03:07:12.197Z,65.26
2018-02-09T03:07:12.798Z,65.26
2018-02-09T03:07:13.398Z,64.98
2018-02-09T03:07:14.002Z,65.36
2018-02-09T03:08:08.508Z,64.51
2018-02-09T03:08:09.073Z,64.51
2018-02-09T03:08:09.728Z,64.51
2018-02-09T03:08:10.274Z,65.36
2018-02-09T03:08:10.872Z,65.30
2018-02-09T03:08:11.475Z,64.83
2018-02-09T03:08:12.073Z,65.26
2018-02-09T03:08:12.671Z,64.51
2018-02-09T03:09:06.155Z,64.79
2018-02-09T03:09:06.729Z,65.11
2018-02-09T03:09:07.335Z,64.92
2018-02-09T03:09:07.926Z,64.83
2018-02-09T03:09:08.526Z,65.08
2018-02-09T03:09:09.125Z,64.98
2018-02-09T03:09:09.725Z,64.98
2018-02-09T03:09:10.327Z,65.26
2018-02-09T03:10:03.818Z,64.73
2018-02-09T03:10:04.381Z,64.79
2018-02-09T03:10:04.976Z,64.64
2018-02-09T03:10:05.577Z,64.70
2018-02-09T03:10:06.176Z,64.51
2018-02-09T03:10:06.777Z,64.92
2018-02-09T03:10:07.374Z,65.08
2018-02-09T03:10:07.975Z,65.01
2018-02-09T03:11:01.460Z,64.73
2018-02-09T03:11:02.029Z,64.64
2018-02-09T03:11:02.629Z,64.83
2018-02-09T03:11:03.229Z,64.98
2018-02-09T03:11:03.829Z,65.11
2018-02-09T03:11:04.428Z,64.98
2018-02-09T03:11:05.029Z,64.83
2018-02-09T03:11:05.628Z,65.01
2018-02-09T03:11:59.111Z,64.64
2018-02-09T03:11:59.680Z,64.45
2018-02-09T03:12:00.282Z,64.36
2018-02-09T03:12:00.881Z,64.36
2018-02-09T03:12:01.482Z,64.54
2018-02-09T03:12:02.083Z,64.45
2018-02-09T03:12:02.683Z,64.54
2018-02-09T03:12:03.281Z,64.17
2018-02-09T03:12:56.761Z,64.45
2018-02-09T03:12:57.334Z,64.45
2018-02-09T03:12:57.932Z,64.45
2018-02-09T03:12:58.531Z,64.07
2018-02-09T03:12:59.132Z,64.45
2018-02-09T03:12:59.731Z,64.45
2018-02-09T03:13:00.331Z,64.17
2018-02-09T03:13:00.934Z,64.45
2018-02-09T03:13:55.440Z,65.01
2018-02-09T03:13:56.008Z,64.92
2018-02-09T03:13:56.608Z,64.83
2018-02-09T03:13:57.208Z,65.11
2018-02-09T03:13:57.813Z,64.36
2018-02-09T03:13:58.405Z,64.45
2018-02-09T03:13:59.009Z,64.36
2018-02-09T03:13:59.607Z,64.36
2018-02-09T03:14:54.114Z,65.77
2018-02-09T03:14:54.684Z,65.77
2018-02-09T03:14:55.283Z,65.58
2018-02-09T03:14:55.884Z,65.77
2018-02-09T03:14:56.482Z,65.77
2018-02-09T03:14:57.084Z,65.67
2018-02-09T03:14:57.682Z,65.67
2018-02-09T03:14:58.281Z,65.86
2018-02-09T03:15:51.763Z,66.43
2018-02-09T03:15:52.337Z,66.52
2018-02-09T03:15:52.935Z,66.43
2018-02-09T03:15:53.537Z,66.62
2018-02-09T03:15:54.137Z,66.62
2018-02-09T03:15:54.736Z,66.52
2018-02-09T03:15:55.335Z,66.62
2018-02-09T03:15:55.936Z,66.62
2018-02-09T03:16:49.502Z,66.62
2018-02-09T03:16:50.007Z,66.71
2018-02-09T03:16:50.609Z,66.43
2018-02-09T03:16:51.208Z,66.71
2018-02-09T03:16:51.807Z,66.52
2018-02-09T03:16:52.405Z,66.43
2018-02-09T03:16:53.005Z,66.43
2018-02-09T03:16:53.607Z,66.24
2018-02-09T03:17:48.092Z,66.43
2018-02-09T03:17:48.664Z,66.05
2018-02-09T03:17:49.263Z,66.43
2018-02-09T03:17:49.862Z,66.62
2018-02-09T03:17:50.462Z,66.05
2018-02-09T03:17:51.065Z,66.52
2018-02-09T03:17:51.661Z,66.34
2018-02-09T03:17:52.262Z,66.43
2018-02-09T03:18:45.754Z,64.83
2018-02-09T03:18:46.315Z,64.73
2018-02-09T03:18:46.915Z,64.83
2018-02-09T03:18:47.513Z,64.64
2018-02-09T03:18:48.112Z,65.01
2018-02-09T03:18:48.712Z,65.01
2018-02-09T03:18:49.311Z,64.64
2018-02-09T03:18:49.911Z,65.01
2018-02-09T03:19:44.423Z,64.73
2018-02-09T03:19:44.990Z,64.45
2018-02-09T03:19:45.589Z,64.83
2018-02-09T03:19:46.190Z,64.64
2018-02-09T03:19:46.789Z,64.45
2018-02-09T03:19:47.388Z,64.92
2018-02-09T03:19:47.989Z,64.64
2018-02-09T03:19:48.590Z,64.83
2018-02-09T03:20:43.097Z,65.11
2018-02-09T03:20:43.665Z,65.39
2018-02-09T03:20:44.264Z,65.11
2018-02-09T03:20:44.871Z,65.20
2018-02-09T03:20:45.465Z,65.01
2018-02-09T03:20:46.065Z,65.20
2018-02-09T03:20:46.664Z,65.20
2018-02-09T03:20:47.266Z,65.20
2018-02-09T03:21:40.755Z,65.86
2018-02-09T03:21:41.318Z,65.77
2018-02-09T03:21:41.917Z,65.77
2018-02-09T03:21:42.519Z,65.48
2018-02-09T03:21:43.118Z,65.77
2018-02-09T03:21:43.717Z,65.96
2018-02-09T03:21:44.323Z,65.86
2018-02-09T03:21:44.917Z,65.96
2018-02-09T03:22:39.438Z,65.96
2018-02-09T03:22:39.994Z,65.39
2018-02-09T03:22:40.592Z,65.86
2018-02-09T03:22:41.193Z,65.86
2018-02-09T03:22:41.792Z,65.86
2018-02-09T03:22:42.393Z,65.86
2018-02-09T03:22:42.992Z,65.86
2018-02-09T03:22:43.592Z,65.86
2018-02-09T03:23:38.100Z,66.34
2018-02-09T03:23:38.668Z,66.90
2018-02-09T03:23:39.270Z,66.90
2018-02-09T03:23:39.868Z,66.34
2018-02-09T03:23:40.468Z,67.00
2018-02-09T03:23:41.068Z,66.90
2018-02-09T03:23:41.668Z,66.90
2018-02-09T03:23:42.269Z,67.00
2018-02-09T03:24:35.752Z,67.00
2018-02-09T03:24:36.321Z,67.19
2018-02-09T03:24:36.922Z,67.28
2018-02-09T03:24:37.521Z,67.09
2018-02-09T03:24:38.120Z,67.09
2018-02-09T03:24:38.720Z,67.09
2018-02-09T03:24:39.324Z,67.09
2018-02-09T03:24:39.920Z,67.28
2018-02-09T03:25:34.427Z,67.75
2018-02-09T03:25:34.997Z,67.85
2018-02-09T03:25:35.595Z,67.85
2018-02-09T03:25:36.198Z,67.66
2018-02-09T03:25:36.800Z,67.75
2018-02-09T03:25:37.395Z,68.51
2018-02-09T03:25:37.995Z,68.32
2018-02-09T03:25:38.596Z,68.51
2018-02-09T03:26:32.079Z,68.98
2018-02-09T03:26:32.647Z,68.41
2018-02-09T03:26:33.248Z,69.17
2018-02-09T03:26:33.848Z,68.32
2018-02-09T03:26:34.448Z,68.88
2018-02-09T03:26:35.046Z,68.98
2018-02-09T03:26:35.656Z,69.17
2018-02-09T03:26:36.247Z,68.88
2018-02-09T03:27:30.754Z,69.45
2018-02-09T03:27:31.324Z,69.45
2018-02-09T03:27:31.923Z,68.79
2018-02-09T03:27:32.521Z,69.54
2018-02-09T03:27:33.121Z,69.45
2018-02-09T03:27:33.723Z,69.54
2018-02-09T03:27:34.326Z,69.35
2018-02-09T03:27:34.921Z,69.35
2018-02-09T03:28:28.407Z,69.83
2018-02-09T03:28:28.976Z,69.83
2018-02-09T03:28:29.573Z,69.73
2018-02-09T03:28:30.173Z,69.83
2018-02-09T03:28:30.772Z,69.83
2018-02-09T03:28:31.372Z,69.83
2018-02-09T03:28:31.972Z,69.83
2018-02-09T03:28:32.572Z,69.45
2018-02-09T03:29:26.057Z,69.54
2018-02-09T03:29:26.629Z,69.54
2018-02-09T03:29:27.227Z,69.73
2018-02-09T03:29:27.836Z,69.73
2018-02-09T03:29:28.427Z,69.73
2018-02-09T03:29:29.026Z,69.73